Time;durP1;ratioP1;P1;durP2;ratioP2;P2;SDS_P1;SDS_P2;PMS_P1;PMS_P2;Temp;Humidity;BMP_temperature;BMP_pressure;BME280_temperature;BME280_humidity;BME280_pressure;Samples;Min_cycle;Max_cycle;Signal;HPM_P1;HPM_P2
2024/02/28 00:00:56;;;;;;;21.40;15.30;;;8.00;59.80;;;;;;4951048;28;20255;-62
2024/02/28 00:03:23;;;;;;;18.27;15.30;;;8.00;60.00;;;;;;4952592;29;20634;-61
2024/02/28 00:05:50;;;;;;;18.67;15.60;;;8.00;60.30;;;;;;4956881;28;20209;-62
2024/02/28 00:08:19;;;;;;;20.37;15.77;;;8.10;60.20;;;;;;4957102;28;20209;-63
2024/02/28 00:10:45;;;;;;;19.70;16.10;;;8.10;60.50;;;;;;4949201;28;20210;-62
2024/02/28 00:13:12;;;;;;;18.13;14.70;;;8.10;60.40;;;;;;4945878;29;20275;-62
2024/02/28 00:15:38;;;;;;;20.93;16.50;;;8.10;60.20;;;;;;4946094;29;20209;-62
2024/02/28 00:18:05;;;;;;;19.93;15.90;;;8.10;60.30;;;;;;4951548;29;20213;-62
2024/02/28 00:20:31;;;;;;;18.53;15.00;;;8.10;60.50;;;;;;4953188;28;20294;-63
2024/02/28 00:22:58;;;;;;;21.17;16.23;;;8.10;60.30;;;;;;4948813;28;20253;-63
2024/02/28 00:25:24;;;;;;;19.90;15.57;;;8.10;60.20;;;;;;4948168;28;20243;-63
2024/02/28 00:27:51;;;;;;;19.63;15.73;;;8.10;60.40;;;;;;4956548;28;20237;-62
2024/02/28 00:30:17;;;;;;;19.40;15.80;;;8.10;60.40;;;;;;4945572;29;20221;-61
2024/02/28 00:32:44;;;;;;;19.70;15.67;;;8.10;60.60;;;;;;4953345;29;20229;-62
2024/02/28 00:35:10;;;;;;;18.23;15.97;;;8.10;60.70;;;;;;4944638;28;20213;-63
2024/02/28 00:37:37;;;;;;;20.47;15.90;;;8.10;60.40;;;;;;4950733;28;20205;-63
2024/02/28 00:40:04;;;;;;;18.37;15.10;;;8.00;60.70;;;;;;4946872;29;20264;-61
2024/02/28 00:42:30;;;;;;;20.23;16.17;;;7.90;60.90;;;;;;4948178;28;20233;-61
2024/02/28 00:44:57;;;;;;;19.37;16.17;;;7.90;61.00;;;;;;4954768;28;20256;-62
2024/02/28 00:47:24;;;;;;;19.13;15.50;;;7.90;61.20;;;;;;4948692;28;20237;-63
2024/02/28 00:49:50;;;;;;;18.07;15.30;;;7.90;61.60;;;;;;4953620;29;20337;-61
2024/02/28 00:52:17;;;;;;;19.53;17.13;;;7.80;61.50;;;;;;4953368;28;20233;-63
2024/02/28 00:54:43;;;;;;;20.10;17.37;;;7.80;61.50;;;;;;4946275;29;20210;-62
2024/02/28 00:57:10;;;;;;;20.83;16.47;;;7.80;61.50;;;;;;4948057;29;20221;-63
2024/02/28 00:59:36;;;;;;;17.27;15.37;;;7.90;61.70;;;;;;4949739;28;20245;-63
2024/02/28 01:02:04;;;;;;;21.23;16.73;;;7.90;61.60;;;;;;4948926;29;20268;-63
2024/02/28 01:04:30;;;;;;;20.07;17.07;;;7.90;61.20;;;;;;4944010;28;20304;-63
2024/02/28 01:06:57;;;;;;;21.77;17.10;;;7.90;61.40;;;;;;4953484;28;20221;-63
2024/02/28 01:09:23;;;;;;;20.20;16.23;;;8.00;61.40;;;;;;4950573;28;20286;-62
2024/02/28 01:11:50;;;;;;;20.50;16.87;;;8.00;61.20;;;;;;4944789;29;20304;-63
2024/02/28 01:14:17;;;;;;;21.30;16.10;;;8.00;61.20;;;;;;4955308;28;20244;-62
2024/02/28 01:16:43;;;;;;;19.43;15.93;;;7.90;61.50;;;;;;4950243;28;20291;-63
2024/02/28 01:19:10;;;;;;;19.90;16.53;;;7.90;62.30;;;;;;4952476;28;20233;-63
2024/02/28 01:21:36;;;;;;;20.27;17.27;;;8.00;61.60;;;;;;4955699;28;20826;-62
2024/02/28 01:24:03;;;;;;;22.27;17.73;;;8.00;61.20;;;;;;4951978;28;20224;-62
2024/02/28 01:26:29;;;;;;;20.17;16.97;;;8.00;61.40;;;;;;4944568;29;20249;-63
2024/02/28 01:28:56;;;;;;;21.50;17.33;;;8.00;61.20;;;;;;4945208;29;20237;-63
2024/02/28 01:31:23;;;;;;;20.43;17.23;;;8.00;61.50;;;;;;4947437;28;20228;-63
2024/02/28 01:33:49;;;;;;;23.90;17.87;;;8.00;61.30;;;;;;4947693;28;20612;-63
2024/02/28 01:36:16;;;;;;;21.10;16.87;;;7.90;61.30;;;;;;4950962;29;20243;-63
2024/02/28 01:38:42;;;;;;;20.27;15.93;;;7.90;61.30;;;;;;4944628;28;20291;-63
2024/02/28 01:41:09;;;;;;;18.50;15.97;;;7.90;61.60;;;;;;4952526;29;20213;-63
2024/02/28 01:43:35;;;;;;;19.97;17.03;;;8.00;61.40;;;;;;4947490;28;20271;-62
2024/02/28 01:46:02;;;;;;;18.57;16.20;;;8.10;61.10;;;;;;4951435;28;20647;-62
2024/02/28 01:48:29;;;;;;;21.93;17.50;;;8.00;61.40;;;;;;4948037;29;20214;-62
2024/02/28 01:50:56;;;;;;;20.83;17.07;;;8.00;61.70;;;;;;4939193;28;20224;-63
2024/02/28 01:53:22;;;;;;;21.20;16.73;;;8.10;61.80;;;;;;4946897;28;20205;-63
2024/02/28 01:55:49;;;;;;;20.40;15.97;;;8.10;61.20;;;;;;4954990;28;20212;-63
2024/02/28 01:58:16;;;;;;;20.77;16.97;;;8.10;61.20;;;;;;4951422;29;20213;-62
2024/02/28 02:00:42;;;;;;;19.93;16.43;;;8.10;61.20;;;;;;4949813;29;20256;-63
2024/02/28 02:03:09;;;;;;;19.57;17.37;;;8.00;61.30;;;;;;4948599;28;20631;-62
2024/02/28 02:05:35;;;;;;;22.13;17.27;;;8.00;61.30;;;;;;4948264;29;20241;-62
2024/02/28 02:08:02;;;;;;;18.90;16.50;;;8.00;61.10;;;;;;4945244;29;20613;-63
2024/02/28 02:10:28;;;;;;;20.93;16.93;;;8.00;61.60;;;;;;4946956;28;20308;-63
2024/02/28 02:12:55;;;;;;;22.13;17.23;;;8.00;61.70;;;;;;5266573;23;20248;-64
2024/02/28 02:15:21;;;;;;;20.40;16.93;;;8.00;61.70;;;;;;4965730;28;20235;-64
2024/02/28 02:17:48;;;;;;;21.30;17.87;;;7.90;61.60;;;;;;4962551;28;20263;-64
2024/02/28 02:20:15;;;;;;;21.10;17.13;;;7.90;61.60;;;;;;4972046;28;20218;-65
2024/02/28 02:22:41;;;;;;;20.93;17.33;;;7.90;61.50;;;;;;4969158;28;20237;-64
2024/02/28 02:25:08;;;;;;;19.30;16.80;;;7.90;61.60;;;;;;4984036;28;20205;-64
2024/02/28 02:27:34;;;;;;;23.77;17.63;;;7.90;61.60;;;;;;4988238;28;20212;-64
2024/02/28 02:30:01;;;;;;;21.13;17.47;;;7.90;61.60;;;;;;4978965;28;20826;-64
2024/02/28 02:32:28;;;;;;;20.97;17.53;;;7.90;61.60;;;;;;4974298;28;20223;-65
2024/02/28 02:34:54;;;;;;;20.10;17.43;;;7.80;61.90;;;;;;4970519;28;20300;-64
2024/02/28 02:37:21;;;;;;;21.83;17.67;;;8.00;61.70;;;;;;4976289;28;20204;-64
2024/02/28 02:39:48;;;;;;;21.20;16.27;;;8.00;61.70;;;;;;4972511;28;20220;-65
2024/02/28 02:42:14;;;;;;;22.93;16.97;;;8.00;61.70;;;;;;4984936;28;20262;-64
2024/02/28 02:44:41;;;;;;;21.10;17.37;;;8.00;61.40;;;;;;4982187;28;20211;-64
2024/02/28 02:47:07;;;;;;;21.33;16.37;;;8.00;61.20;;;;;;4980868;28;20215;-65
2024/02/28 02:49:34;;;;;;;22.37;17.80;;;8.00;61.40;;;;;;4981228;28;20212;-64
2024/02/28 02:52:00;;;;;;;21.30;17.43;;;8.10;61.10;;;;;;4964376;28;20279;-65
2024/02/28 02:54:27;;;;;;;21.00;17.33;;;8.00;61.10;;;;;;4980722;28;20243;-65
2024/02/28 02:56:53;;;;;;;22.57;17.97;;;7.90;61.40;;;;;;4969113;28;20204;-64
2024/02/28 02:59:21;;;;;;;24.67;17.37;;;7.80;61.10;;;;;;4979247;28;20280;-64
2024/02/28 03:01:48;;;;;;;20.87;17.33;;;7.80;61.50;;;;;;4983573;28;20310;-64
2024/02/28 03:04:14;;;;;;;23.27;17.67;;;7.80;61.30;;;;;;4981378;28;20236;-64
2024/02/28 03:06:41;;;;;;;21.83;17.30;;;7.80;61.50;;;;;;4968181;28;20263;-64
2024/02/28 03:09:08;;;;;;;22.40;18.33;;;7.80;60.90;;;;;;4988714;28;20264;-64
2024/02/28 03:11:35;;;;;;;24.47;19.07;;;7.70;61.30;;;;;;4960566;28;20216;-65
2024/02/28 03:14:01;;;;;;;20.37;17.00;;;7.80;61.50;;;;;;4967243;28;20212;-65
2024/02/28 03:16:29;;;;;;;22.47;18.03;;;7.70;61.40;;;;;;4985940;28;20240;-64
2024/02/28 03:18:55;;;;;;;20.93;17.70;;;7.80;61.40;;;;;;4984436;28;20366;-64
2024/02/28 03:21:22;;;;;;;22.97;18.50;;;7.80;60.90;;;;;;4979416;28;20251;-64
2024/02/28 03:23:49;;;;;;;22.23;17.77;;;7.70;60.50;;;;;;4980914;28;20209;-63
2024/02/28 03:26:15;;;;;;;25.70;19.07;;;7.70;60.60;;;;;;4975281;28;20206;-64
2024/02/28 03:28:42;;;;;;;23.43;18.87;;;7.70;60.80;;;;;;4976915;28;20222;-65
2024/02/28 03:31:08;;;;;;;24.20;18.37;;;7.70;60.40;;;;;;4970223;28;20217;-62
2024/02/28 03:33:35;;;;;;;21.50;18.27;;;7.70;60.60;;;;;;4984261;28;20265;-62
2024/02/28 03:36:01;;;;;;;22.10;18.30;;;7.70;60.60;;;;;;4979419;28;21036;-63
2024/02/28 03:38:28;;;;;;;22.80;18.77;;;7.60;60.20;;;;;;4984348;28;20265;-62
2024/02/28 03:40:54;;;;;;;22.20;17.77;;;7.60;60.50;;;;;;4983720;28;20219;-64
2024/02/28 03:43:22;;;;;;;22.90;18.73;;;7.70;60.50;;;;;;4979389;28;20203;-64
2024/02/28 03:45:48;;;;;;;23.63;19.30;;;7.70;60.30;;;;;;4978506;28;20694;-64
2024/02/28 03:48:15;;;;;;;26.53;19.83;;;7.50;60.60;;;;;;4964161;28;20215;-64
2024/02/28 03:50:41;;;;;;;24.57;19.13;;;7.60;60.50;;;;;;4984525;28;20215;-64
2024/02/28 03:53:08;;;;;;;25.50;18.60;;;7.60;60.50;;;;;;4977449;28;20230;-64
2024/02/28 03:55:34;;;;;;;23.77;18.90;;;7.60;60.50;;;;;;4980108;28;20747;-62
2024/02/28 03:58:01;;;;;;;23.97;19.00;;;7.50;61.10;;;;;;4982102;28;20219;-62
2024/02/28 04:00:27;;;;;;;24.63;19.63;;;7.60;60.60;;;;;;4983828;28;20744;-63
2024/02/28 04:02:54;;;;;;;26.03;18.83;;;7.60;60.50;;;;;;4968685;28;20255;-63
2024/02/28 04:05:20;;;;;;;27.03;20.30;;;7.50;60.90;;;;;;4973710;28;20248;-62
2024/02/28 04:07:47;;;;;;;27.37;20.33;;;7.50;61.20;;;;;;4975590;28;20211;-64
2024/02/28 04:10:15;;;;;;;24.40;19.97;;;7.50;61.20;;;;;;4980668;28;20215;-62
2024/02/28 04:12:41;;;;;;;26.17;19.63;;;7.50;61.20;;;;;;4980003;28;20306;-63
2024/02/28 04:15:08;;;;;;;26.50;19.67;;;7.40;61.10;;;;;;4982890;28;20306;-64
2024/02/28 04:17:34;;;;;;;25.13;19.43;;;7.40;61.10;;;;;;4983811;28;20207;-64
2024/02/28 04:20:04;;;;;;;26.70;20.27;;;7.50;60.90;;;;;;4982920;28;20238;-64
2024/02/28 04:22:30;;;;;;;25.90;20.67;;;7.60;60.90;;;;;;4966422;28;20239;-63
2024/02/28 04:24:57;;;;;;;25.43;20.03;;;7.40;60.90;;;;;;4981955;28;20633;-64
2024/02/28 04:27:23;;;;;;;26.97;21.07;;;7.40;61.10;;;;;;4985009;28;20239;-64
2024/02/28 04:29:50;;;;;;;25.90;20.27;;;7.40;61.10;;;;;;4984431;28;20254;-64
2024/02/28 04:32:16;;;;;;;29.20;20.30;;;7.40;61.10;;;;;;4982366;28;20895;-63
2024/02/28 04:34:43;;;;;;;28.77;21.43;;;7.40;61.10;;;;;;4982931;28;20216;-63
2024/02/28 04:37:09;;;;;;;25.83;20.07;;;7.30;61.00;;;;;;4983607;28;20274;-64
2024/02/28 04:39:36;;;;;;;26.93;21.03;;;7.40;61.10;;;;;;4976788;28;20207;-64
2024/02/28 04:42:03;;;;;;;27.37;21.47;;;7.40;60.90;;;;;;4975148;28;20231;-63
2024/02/28 04:44:33;;;;;;;24.83;20.13;;;7.30;61.00;;;;;;5306138;23;20240;-62
2024/02/28 04:46:59;;;;;;;26.13;20.67;;;7.20;61.40;;;;;;4936808;29;20228;-63
2024/02/28 04:49:26;;;;;;;24.47;19.27;;;7.20;61.50;;;;;;4934334;29;20310;-63
2024/02/28 05:55:56;;;;;;;30.47;21.20;;;7.20;61.70;;;;;;5339710;23;20271;-63
2024/02/28 05:58:23;;;;;;;28.30;20.43;;;7.30;61.70;;;;;;4949931;28;20215;-60
2024/02/28 06:00:49;;;;;;;28.47;21.47;;;7.30;61.40;;;;;;4955133;28;20240;-62
2024/02/28 06:03:16;;;;;;;28.77;21.80;;;7.20;61.70;;;;;;4933757;29;20237;-61
2024/02/28 06:05:43;;;;;;;26.93;20.67;;;7.20;61.90;;;;;;4931577;29;20240;-63
2024/02/28 06:08:09;;;;;;;28.73;21.60;;;7.20;61.50;;;;;;4934971;29;20292;-63
2024/02/28 06:10:36;;;;;;;31.43;22.33;;;7.20;61.80;;;;;;4932297;29;23218;-63
2024/02/28 06:13:02;;;;;;;28.83;21.47;;;7.20;61.80;;;;;;4923180;29;20229;-62
2024/02/28 06:15:29;;;;;;;31.10;23.27;;;7.20;61.50;;;;;;4935968;29;20221;-63
2024/02/28 06:17:55;;;;;;;32.63;22.00;;;7.20;61.90;;;;;;4935777;29;20639;-64
2024/02/28 06:20:22;;;;;;;29.77;21.57;;;7.20;62.20;;;;;;4932623;29;20217;-62
2024/02/28 06:22:48;;;;;;;33.53;23.23;;;7.30;61.90;;;;;;4930807;29;20232;-62
2024/02/28 06:25:19;;;;;;;29.97;22.60;;;7.30;61.80;;;;;;4935106;29;20695;-62
2024/02/28 06:27:45;;;;;;;30.37;21.17;;;7.40;61.50;;;;;;4930765;29;20209;-62
2024/02/28 06:30:12;;;;;;;31.03;22.43;;;7.50;61.20;;;;;;4925478;29;20586;-64
2024/02/28 06:32:38;;;;;;;27.93;22.20;;;7.50;61.20;;;;;;4931000;29;20233;-64
2024/02/28 06:35:05;;;;;;;32.13;22.33;;;7.40;61.30;;;;;;4923192;29;20213;-62
2024/02/28 06:37:35;;;;;;;31.07;21.37;;;7.40;61.30;;;;;;4925303;29;20677;-62
2024/02/28 06:40:01;;;;;;;31.40;23.07;;;7.50;61.20;;;;;;4931088;29;20236;-63
2024/02/28 06:42:28;;;;;;;31.47;23.13;;;7.40;61.10;;;;;;4929642;29;20244;-62
2024/02/28 06:44:55;;;;;;;32.20;23.53;;;7.30;61.20;;;;;;4935567;29;20214;-62
2024/02/28 06:47:21;;;;;;;29.93;22.00;;;7.30;61.00;;;;;;4931146;29;20636;-62
2024/02/28 06:49:49;;;;;;;31.73;22.20;;;7.30;61.30;;;;;;4934897;29;20261;-63
2024/02/28 06:52:15;;;;;;;34.03;22.70;;;7.30;61.80;;;;;;4927098;29;20257;-63
2024/02/28 06:54:42;;;;;;;31.77;22.07;;;7.40;61.10;;;;;;4923451;29;20210;-64
2024/02/28 06:57:15;;;;;;;32.40;23.77;;;7.40;61.10;;;;;;4926690;29;20650;-62
2024/02/28 06:59:45;;;;;;;34.20;23.43;;;7.40;61.10;;;;;;4918416;29;20740;-63
2024/02/28 07:02:12;;;;;;;33.27;23.10;;;7.40;61.50;;;;;;4927775;29;20233;-63
2024/02/28 07:05:10;;;;;;;;;;;;;;;;;;;;;
2024/02/28 07:35:00;;;;;;;41.40;27.13;;;7.60;61.30;;;;;;4923203;29;20250;-63
2024/02/28 07:37:26;;;;;;;42.33;26.13;;;7.60;61.10;;;;;;4905485;29;20995;-61
2024/02/28 07:39:53;;;;;;;41.07;26.23;;;7.60;61.00;;;;;;4912615;29;20784;-63
2024/02/28 07:42:19;;;;;;;42.67;25.80;;;7.60;60.50;;;;;;4925403;29;20256;-62
2024/02/28 07:44:46;;;;;;;38.53;26.27;;;7.60;61.00;;;;;;4920581;29;20272;-63
2024/02/28 07:47:14;;;;;;;36.50;25.47;;;7.70;61.00;;;;;;4919537;29;20647;-63
2024/02/28 07:49:40;;;;;;;38.20;25.40;;;7.60;60.30;;;;;;4907669;29;20213;-62
2024/02/28 07:52:07;;;;;;;36.77;24.77;;;7.70;60.30;;;;;;4933152;29;20256;-63
2024/02/28 07:54:34;;;;;;;34.80;24.27;;;7.60;60.50;;;;;;4929276;29;20312;-63
2024/02/28 07:57:00;;;;;;;37.60;25.73;;;7.60;60.90;;;;;;4922035;29;20269;-62
2024/02/28 07:59:27;;;;;;;38.30;25.57;;;7.70;60.60;;;;;;4922612;29;20217;-64
2024/02/28 08:01:53;;;;;;;34.47;25.17;;;7.70;60.50;;;;;;4925148;29;20303;-62
2024/02/28 08:04:20;;;;;;;37.90;25.53;;;7.70;60.80;;;;;;4926891;29;20240;-63
2024/02/28 08:06:46;;;;;;;40.60;26.60;;;7.80;60.50;;;;;;4924559;29;20217;-63
2024/02/28 08:09:15;;;;;;;40.23;25.77;;;7.80;60.20;;;;;;4933679;29;20622;-62
2024/02/28 08:11:41;;;;;;;39.50;26.03;;;7.70;60.40;;;;;;4932920;29;20233;-63
2024/02/28 08:14:08;;;;;;;38.40;25.90;;;7.60;60.60;;;;;;4924191;29;20209;-63
2024/02/28 08:16:35;;;;;;;41.50;24.90;;;7.60;60.10;;;;;;4922945;29;20297;-63
2024/02/28 08:19:02;;;;;;;39.23;26.27;;;7.60;60.80;;;;;;4927877;29;20301;-63
2024/02/28 08:21:29;;;;;;;40.40;27.30;;;7.70;60.60;;;;;;4934861;29;20236;-63
2024/02/28 08:23:56;;;;;;;38.90;25.93;;;7.70;60.40;;;;;;4931578;29;20237;-63
2024/02/28 08:29:07;;;;;;;42.47;27.10;;;7.60;60.90;;;;;;4933039;29;20248;-64
2024/02/28 08:31:33;;;;;;;43.87;28.27;;;7.60;60.30;;;;;;4936221;29;20232;-63
2024/02/28 08:34:03;;;;;;;41.37;27.27;;;7.70;60.10;;;;;;4936802;29;20260;-63
2024/02/28 08:36:30;;;;;;;43.00;26.73;;;7.60;60.50;;;;;;4932790;29;20235;-63
2024/02/28 08:38:56;;;;;;;43.40;27.13;;;7.60;61.10;;;;;;4934353;29;20213;-63
2024/02/28 08:41:23;;;;;;;40.23;27.63;;;7.70;60.60;;;;;;4928959;29;20286;-62
2024/02/28 08:43:49;;;;;;;42.00;28.27;;;7.70;60.70;;;;;;4934434;29;20252;-63
2024/02/28 08:46:16;;;;;;;44.60;27.37;;;7.70;60.30;;;;;;4929102;29;20225;-63
2024/02/28 08:48:43;;;;;;;45.73;29.30;;;7.70;60.40;;;;;;4930595;29;20292;-63
2024/02/28 08:51:10;;;;;;;41.77;27.10;;;7.60;61.10;;;;;;4930558;29;20217;-63
2024/02/28 08:53:37;;;;;;;42.00;26.93;;;7.50;61.20;;;;;;4925418;29;20206;-63
2024/02/28 08:56:04;;;;;;;41.57;28.27;;;7.60;61.20;;;;;;4919953;29;20226;-63
2024/02/28 08:58:30;;;;;;;42.63;26.13;;;7.70;60.80;;;;;;4925755;29;20213;-62
2024/02/28 09:00:57;;;;;;;39.30;26.00;;;7.70;61.00;;;;;;4932539;29;20233;-63
2024/02/28 09:03:24;;;;;;;44.67;27.77;;;7.70;60.60;;;;;;4936359;29;20282;-61
2024/02/28 09:05:51;;;;;;;38.07;26.70;;;7.70;60.00;;;;;;4927632;29;20275;-61
2024/02/28 09:08:17;;;;;;;43.60;27.67;;;7.70;60.40;;;;;;4929351;29;20633;-61
2024/02/28 09:10:44;;;;;;;41.57;27.57;;;7.70;60.80;;;;;;4932842;29;20217;-63
2024/02/28 09:13:12;;;;;;;36.97;25.90;;;7.70;60.90;;;;;;4936733;29;20359;-64
2024/02/28 09:15:38;;;;;;;37.23;26.17;;;7.70;60.60;;;;;;4935188;29;20532;-64
2024/02/28 09:18:05;;;;;;;41.97;28.27;;;7.70;60.60;;;;;;4936497;29;20222;-63
2024/02/28 09:20:31;;;;;;;40.50;28.73;;;7.70;60.60;;;;;;4937038;29;20216;-60
2024/02/28 09:22:58;;;;;;;44.20;28.90;;;7.60;61.30;;;;;;4930194;29;20234;-65
2024/02/28 09:25:24;;;;;;;41.30;28.17;;;7.60;61.10;;;;;;4933876;29;20206;-65
2024/02/28 09:27:51;;;;;;;43.10;28.03;;;7.60;61.00;;;;;;4933417;29;20448;-64
2024/02/28 09:30:18;;;;;;;39.63;28.17;;;7.70;61.40;;;;;;4935964;29;20220;-64
2024/02/28 09:32:44;;;;;;;37.80;26.87;;;7.70;60.50;;;;;;4936193;29;20321;-64
2024/02/28 09:35:11;;;;;;;40.77;26.57;;;7.80;61.00;;;;;;4936415;29;20225;-65
2024/02/28 09:37:37;;;;;;;42.57;28.67;;;7.90;60.40;;;;;;4931411;29;20213;-63
2024/02/28 09:40:05;;;;;;;39.93;25.97;;;7.70;60.00;;;;;;4935952;29;20564;-62
2024/02/28 09:42:31;;;;;;;40.27;27.10;;;7.70;60.90;;;;;;4927838;29;20228;-62
2024/02/28 09:44:58;;;;;;;41.20;28.13;;;7.70;60.70;;;;;;4932147;29;20724;-62
2024/02/28 09:47:24;;;;;;;45.03;27.23;;;7.80;60.70;;;;;;4927622;29;20218;-61
2024/02/28 09:49:51;;;;;;;44.73;27.97;;;7.80;60.70;;;;;;4928598;29;20636;-63
2024/02/28 09:52:18;;;;;;;46.03;27.93;;;7.90;60.30;;;;;;4927727;29;20612;-65
2024/02/28 09:54:44;;;;;;;39.07;26.87;;;8.00;60.00;;;;;;4933244;29;20304;-61
2024/02/28 09:57:11;;;;;;;39.10;27.03;;;7.80;60.00;;;;;;4934487;29;20335;-62
2024/02/28 09:59:37;;;;;;;39.27;27.63;;;7.90;59.80;;;;;;4935781;29;20224;-63
2024/02/28 10:02:04;;;;;;;42.40;26.80;;;8.00;59.70;;;;;;4933321;29;20233;-63
2024/02/28 10:04:30;;;;;;;38.33;25.57;;;8.10;59.50;;;;;;4935378;29;20227;-63
2024/02/28 10:06:57;;;;;;;37.57;26.20;;;8.20;58.80;;;;;;4934249;29;20226;-63
2024/02/28 10:09:24;;;;;;;39.90;25.73;;;8.10;59.20;;;;;;4925241;29;20210;-63
2024/02/28 10:11:50;;;;;;;41.77;26.77;;;8.20;58.70;;;;;;4932060;29;20230;-63
2024/02/28 10:14:17;;;;;;;39.90;26.67;;;8.20;59.00;;;;;;4929842;29;20213;-63
2024/02/28 10:16:43;;;;;;;39.83;28.10;;;8.40;58.70;;;;;;4923194;29;20237;-64
2024/02/28 10:19:10;;;;;;;38.93;25.93;;;8.40;58.10;;;;;;4928578;29;20265;-63
2024/02/28 10:21:36;;;;;;;37.87;24.70;;;8.30;58.10;;;;;;4915826;29;20677;-63
2024/02/28 10:24:03;;;;;;;39.70;25.97;;;8.20;58.30;;;;;;4927710;29;20283;-62
2024/02/28 10:26:32;;;;;;;38.50;25.83;;;8.30;58.50;;;;;;4933235;29;20210;-62
2024/02/28 10:28:59;;;;;;;35.83;23.93;;;8.30;58.40;;;;;;4931134;29;20204;-62
2024/02/28 10:31:25;;;;;;;34.93;25.03;;;8.30;57.60;;;;;;4931689;29;20261;-63
2024/02/28 10:33:51;;;;;;;34.97;24.83;;;8.30;57.40;;;;;;4918288;29;20627;-65
2024/02/28 10:36:17;;;;;;;32.40;24.20;;;8.30;57.50;;;;;;4922093;29;20202;-63
2024/02/28 10:38:44;;;;;;;40.77;26.10;;;8.20;57.90;;;;;;4925724;29;20249;-63
2024/02/28 10:41:12;;;;;;;36.33;24.57;;;8.30;58.10;;;;;;4925422;29;20256;-63
2024/02/28 10:43:39;;;;;;;34.30;24.17;;;8.30;58.10;;;;;;4926206;29;20256;-63
2024/02/28 10:46:05;;;;;;;36.37;24.27;;;8.20;57.30;;;;;;4916039;29;20696;-63
2024/02/28 10:48:32;;;;;;;33.83;24.13;;;8.30;57.80;;;;;;4921269;29;20209;-63
2024/02/28 10:50:58;;;;;;;34.87;24.83;;;8.30;57.50;;;;;;4933279;29;20236;-63
2024/02/28 10:53:25;;;;;;;35.43;23.40;;;8.40;57.50;;;;;;4931239;29;20209;-63
2024/02/28 10:55:51;;;;;;;32.77;24.30;;;8.30;57.40;;;;;;4927963;29;20216;-63
2024/02/28 10:58:18;;;;;;;36.37;25.30;;;8.30;58.00;;;;;;4931819;29;20644;-63
2024/02/28 11:00:45;;;;;;;38.67;25.97;;;8.50;57.80;;;;;;4932906;29;20245;-63
2024/02/28 11:03:12;;;;;;;37.23;25.50;;;8.50;57.60;;;;;;4933082;29;20256;-63
2024/02/28 11:05:40;;;;;;;39.60;27.00;;;8.50;57.60;;;;;;4918777;29;20235;-62
2024/02/28 11:08:06;;;;;;;36.77;26.53;;;8.50;57.60;;;;;;4927035;29;20212;-62
2024/02/28 11:10:34;;;;;;;41.60;27.43;;;8.60;57.70;;;;;;4927388;29;20277;-64
2024/02/28 11:13:00;;;;;;;40.73;26.60;;;8.50;57.60;;;;;;4928215;29;20588;-62
2024/02/28 11:15:27;;;;;;;42.83;26.90;;;8.50;58.10;;;;;;4934571;29;20238;-62
2024/02/28 11:17:54;;;;;;;40.17;26.87;;;8.40;58.10;;;;;;4934591;29;20289;-62
2024/02/28 11:20:22;;;;;;;41.60;27.80;;;8.50;58.10;;;;;;4934304;29;20843;-63
2024/02/28 11:22:48;;;;;;;37.70;26.30;;;8.50;57.60;;;;;;4933917;29;20252;-62
2024/02/28 11:25:15;;;;;;;37.83;26.37;;;8.50;57.60;;;;;;4934132;29;20282;-63
2024/02/28 11:27:41;;;;;;;37.03;25.17;;;8.50;57.90;;;;;;4926236;29;20361;-63
2024/02/28 11:30:08;;;;;;;38.27;26.83;;;8.50;57.60;;;;;;4929996;29;20210;-63
2024/02/28 11:35:27;;;;;;;36.03;24.70;;;8.60;57.70;;;;;;5212207;23;20337;-62
2024/02/28 11:37:56;;;;;;;33.40;23.63;;;8.60;57.70;;;;;;4968798;28;20235;-66
2024/02/28 11:40:23;;;;;;;32.43;23.87;;;8.50;57.60;;;;;;4956186;28;20216;-62
2024/02/28 11:42:49;;;;;;;36.60;24.00;;;8.40;57.50;;;;;;4939714;28;20341;-62
2024/02/28 11:45:16;;;;;;;35.13;24.73;;;8.30;57.80;;;;;;4944525;28;20285;-64
2024/02/28 11:47:42;;;;;;;34.83;24.00;;;8.30;58.50;;;;;;4953271;28;20206;-64
2024/02/28 11:50:09;;;;;;;33.47;24.20;;;8.40;58.00;;;;;;4957863;28;20684;-67
2024/02/28 11:52:36;;;;;;;32.77;24.23;;;8.50;57.70;;;;;;4951583;28;20569;-64
2024/02/28 11:55:03;;;;;;;34.23;23.77;;;8.40;57.50;;;;;;4961909;28;20209;-62
2024/02/28 11:57:33;;;;;;;35.30;24.50;;;8.50;57.60;;;;;;4958034;28;20230;-64
2024/02/28 11:59:59;;;;;;;36.20;25.43;;;8.40;57.50;;;;;;4953021;28;20212;-64
2024/02/28 12:02:28;;;;;;;36.43;25.60;;;8.30;57.90;;;;;;4962442;28;20787;-64
2024/02/28 12:04:55;;;;;;;36.77;25.47;;;8.30;58.90;;;;;;4964720;28;20676;-64
2024/02/28 12:07:21;;;;;;;34.77;24.50;;;8.30;58.30;;;;;;4956819;28;20208;-63
2024/02/28 12:09:49;;;;;;;36.53;25.07;;;8.20;58.20;;;;;;4962108;28;20204;-63
2024/02/28 12:12:15;;;;;;;37.57;25.97;;;8.20;57.80;;;;;;4964843;28;20258;-63
2024/02/28 12:14:42;;;;;;;37.27;26.17;;;8.30;58.20;;;;;;4962788;28;20256;-63
2024/02/28 12:17:09;;;;;;;38.17;26.53;;;8.50;57.60;;;;;;4943370;28;20637;-63
2024/02/28 12:19:35;;;;;;;37.00;25.97;;;8.50;57.60;;;;;;4960143;28;20217;-63
2024/02/28 12:22:02;;;;;;;34.97;24.27;;;8.50;57.60;;;;;;4962523;28;20229;-63
2024/02/28 12:24:29;;;;;;;35.90;24.73;;;8.30;57.40;;;;;;4950837;28;20261;-64
2024/02/28 12:26:55;;;;;;;32.53;23.70;;;8.30;57.40;;;;;;4966574;28;20240;-65
2024/02/28 12:29:22;;;;;;;35.53;24.43;;;8.60;57.70;;;;;;4957536;28;20208;-64
2024/02/28 12:31:48;;;;;;;35.10;25.23;;;8.40;57.50;;;;;;4964264;28;20225;-64
2024/02/28 12:34:15;;;;;;;35.47;24.80;;;8.40;57.60;;;;;;4962486;28;20256;-64
2024/02/28 12:36:42;;;;;;;33.80;24.50;;;8.50;57.60;;;;;;4967303;28;20295;-63
2024/02/28 12:39:11;;;;;;;38.53;25.77;;;8.60;57.00;;;;;;4965842;28;20215;-64
2024/02/28 12:41:37;;;;;;;33.93;24.83;;;8.50;57.10;;;;;;4958385;28;20501;-64
2024/02/28 12:44:04;;;;;;;35.03;24.97;;;8.50;57.10;;;;;;4953200;28;20241;-63
2024/02/28 12:46:30;;;;;;;35.57;24.40;;;8.50;57.20;;;;;;4951956;28;20557;-64
2024/02/28 12:48:57;;;;;;;33.17;24.10;;;8.50;57.60;;;;;;4966638;28;20213;-64
2024/02/28 12:51:23;;;;;;;33.13;24.77;;;8.60;56.70;;;;;;4953108;28;20300;-64
2024/02/28 12:53:50;;;;;;;36.63;24.63;;;8.50;56.50;;;;;;4955614;28;20736;-64
2024/02/28 12:56:17;;;;;;;36.03;25.20;;;8.50;56.70;;;;;;4951415;28;20261;-64
2024/02/28 12:58:43;;;;;;;34.63;24.67;;;8.50;57.10;;;;;;4975195;28;20625;-64
2024/02/28 13:01:10;;;;;;;31.57;24.47;;;8.50;57.30;;;;;;4960520;28;20213;-63
2024/02/28 13:03:36;;;;;;;32.80;23.17;;;8.70;56.60;;;;;;4952026;28;20237;-64
2024/02/28 13:06:03;;;;;;;32.60;23.13;;;8.70;56.30;;;;;;4965597;28;20207;-64
2024/02/28 13:08:29;;;;;;;33.00;24.07;;;8.70;56.10;;;;;;4961518;28;20213;-63
2024/02/28 13:10:56;;;;;;;29.37;22.40;;;8.70;55.80;;;;;;4967566;28;20210;-64
2024/02/28 13:13:22;;;;;;;29.57;21.80;;;8.70;55.90;;;;;;4969802;28;20248;-64
2024/02/28 13:15:49;;;;;;;34.57;24.83;;;8.80;55.70;;;;;;4966063;28;20241;-64
2024/02/28 13:18:15;;;;;;;30.77;23.90;;;8.90;55.60;;;;;;4957071;28;20711;-61
2024/02/28 13:20:42;;;;;;;31.40;22.37;;;8.70;55.60;;;;;;4951893;28;20273;-64
2024/02/28 13:23:09;;;;;;;32.30;23.30;;;8.80;55.80;;;;;;4965828;28;20249;-64
2024/02/28 13:25:36;;;;;;;31.53;23.97;;;8.80;55.80;;;;;;4965351;28;20317;-64
2024/02/28 13:28:03;;;;;;;31.93;23.27;;;8.70;56.00;;;;;;4969018;28;20209;-64
2024/02/28 13:30:29;;;;;;;33.23;22.20;;;8.70;55.90;;;;;;4963774;28;21481;-66
2024/02/28 13:32:56;;;;;;;30.93;21.53;;;8.80;55.70;;;;;;4963522;28;20669;-65
2024/02/28 13:35:23;;;;;;;32.03;23.03;;;9.00;55.60;;;;;;4963369;28;20214;-65
2024/02/28 13:37:49;;;;;;;29.03;22.13;;;9.10;54.60;;;;;;4946406;28;20215;-66
2024/02/28 13:40:16;;;;;;;33.83;23.17;;;9.10;55.00;;;;;;4962760;28;20224;-64
2024/02/28 13:42:42;;;;;;;30.80;22.53;;;8.90;55.10;;;;;;4961675;28;20225;-62
2024/02/28 13:45:10;;;;;;;30.40;23.47;;;8.80;55.30;;;;;;4970060;28;20651;-64
2024/02/28 13:47:37;;;;;;;34.20;23.63;;;8.70;55.40;;;;;;4958043;28;20746;-63
2024/02/28 13:50:03;;;;;;;31.97;22.90;;;8.70;55.60;;;;;;4953055;28;20237;-64
2024/02/28 13:52:30;;;;;;;35.20;23.60;;;8.70;56.30;;;;;;4952431;28;20229;-63
2024/02/28 13:54:56;;;;;;;31.90;23.90;;;8.80;55.40;;;;;;4945822;28;20255;-63
2024/02/28 13:57:23;;;;;;;30.63;24.27;;;8.70;55.10;;;;;;4966273;28;20840;-64
2024/02/28 13:59:53;;;;;;;32.37;23.57;;;8.70;55.60;;;;;;4952213;28;20260;-63
2024/02/28 14:02:19;;;;;;;29.27;22.50;;;8.70;55.70;;;;;;4944310;28;20320;-63
2024/02/28 14:04:48;;;;;;;35.30;24.23;;;8.80;54.90;;;;;;4961800;28;20288;-63
2024/02/28 14:07:16;;;;;;;34.53;23.77;;;8.80;55.10;;;;;;4947941;28;20703;-64
2024/02/28 14:09:43;;;;;;;30.47;22.30;;;8.80;55.00;;;;;;4955787;28;20216;-63
2024/02/28 14:12:09;;;;;;;30.83;22.27;;;8.80;54.80;;;;;;4966682;28;20228;-63